Time;durP1;ratioP1;P1;durP2;ratioP2;P2;SDS_P1;SDS_P2;PMS_P1;PMS_P2;Temp;Humidity;BMP_temperature;BMP_pressure;BME280_temperature;BME280_humidity;BME280_pressure;Samples;Min_cycle;Max_cycle;Signal;HPM_P1;HPM_P2
2023/10/03 00:01:07;;;;;;;32.05;20.95;;;;;;;17.19;99.33;101002.63;6186499;23;20390;-64
2023/10/03 00:03:32;;;;;;;32.95;22.02;;;;;;;17.23;99.12;101000.75;6186613;23;20016;-64
2023/10/03 00:05:58;;;;;;;31.50;20.67;;;;;;;17.24;99.08;101006.00;6187417;23;20303;-64
2023/10/03 00:08:26;;;;;;;31.77;21.55;;;;;;;17.23;99.17;100996.31;6186994;23;20009;-64
2023/10/03 00:10:52;;;;;;;34.75;21.90;;;;;;;17.22;98.92;100989.28;6163761;23;20430;-64
2023/10/03 00:13:19;;;;;;;31.55;21.17;;;;;;;17.23;99.08;100980.44;6212037;23;20083;-64
2023/10/03 00:15:45;;;;;;;32.78;21.25;;;;;;;17.16;99.95;100976.28;6187254;23;20012;-64
2023/10/03 00:18:12;;;;;;;35.42;22.55;;;;;;;17.19;99.71;100970.88;6186809;23;20413;-64
2023/10/03 00:20:37;;;;;;;39.08;23.10;;;;;;;17.24;99.15;100979.50;6186990;23;20402;-64
2023/10/03 00:23:04;;;;;;;33.53;20.88;;;;;;;17.27;98.47;100979.41;6162427;23;20013;-64
2023/10/03 00:25:30;;;;;;;35.05;21.98;;;;;;;17.26;98.83;100964.41;6187341;23;20058;-64
2023/10/03 00:28:00;;;;;;;32.90;21.15;;;;;;;17.28;98.53;100967.88;6186927;23;20410;-64
2023/10/03 00:30:28;;;;;;;34.00;22.00;;;;;;;17.23;98.74;100959.25;6186623;23;20071;-64
2023/10/03 00:32:56;;;;;;;31.55;20.77;;;;;;;17.22;98.83;100967.25;6187212;23;20016;-64
2023/10/03 00:35:22;;;;;;;32.53;21.05;;;;;;;17.24;98.66;100973.34;6186943;23;20005;-64
2023/10/03 00:37:52;;;;;;;32.72;21.08;;;;;;;17.21;98.72;100966.38;6186436;23;20423;-64
2023/10/03 00:43:05;;;;;;;35.13;21.33;;;;;;;17.19;99.34;100949.69;6224038;23;20008;-64
2023/10/03 00:45:32;;;;;;;32.05;20.80;;;;;;;17.09;99.42;100950.94;6162187;23;20009;-64
2023/10/03 00:48:02;;;;;;;34.22;22.17;;;;;;;17.10;99.07;100935.00;6211493;23;19997;-64
2023/10/03 00:50:31;;;;;;;;;;;;;;;17.24;98.31;100937.16;6189464;23;20000;-64
2023/10/03 00:53:00;;;;;;;31.85;21.20;;;;;;;17.04;99.27;100919.34;6188977;23;20354;-64
2023/10/03 00:55:28;;;;;;;34.55;22.10;;;;;;;17.00;99.62;100911.59;6188721;23;20550;-64
2023/10/03 00:58:07;;;;;;;31.63;21.42;;;;;;;17.05;99.49;100909.63;6189159;23;20120;-64
2023/10/03 01:00:41;;;;;;;35.22;21.80;;;;;;;17.00;99.74;100899.22;6188275;23;20075;-64
2023/10/03 01:03:23;;;;;;;33.58;22.25;;;;;;;16.95;99.61;100883.50;6189147;23;20009;-64
2023/10/03 01:05:49;;;;;;;34.25;21.13;;;;;;;16.94;100.00;100873.84;6192374;23;20019;-64
2023/10/03 01:08:15;;;;;;;33.63;21.55;;;;;;;17.01;99.67;100876.25;6188248;23;20079;-64
2023/10/03 01:10:40;;;;;;;34.53;21.95;;;;;;;16.97;99.76;100863.13;6164150;23;20146;-64
2023/10/03 01:13:10;;;;;;;33.60;21.75;;;;;;;16.93;100.00;100864.16;6164036;23;20350;-64
2023/10/03 01:15:36;;;;;;;32.13;21.45;;;;;;;17.02;99.32;100855.00;6188350;23;20091;-64
2023/10/03 01:18:05;;;;;;;33.13;21.55;;;;;;;17.00;99.53;100859.50;6163546;23;20012;-64
2023/10/03 01:20:40;;;;;;;38.00;22.50;;;;;;;17.02;99.66;100847.06;6189386;23;20024;-64
2023/10/03 01:23:10;;;;;;;32.65;20.75;;;;;;;16.97;99.78;100844.59;6188195;23;20087;-64
2023/10/03 01:25:42;;;;;;;32.28;22.15;;;;;;;17.06;99.21;100835.44;6188644;23;20009;-64
2023/10/03 01:28:16;;;;;;;33.90;22.48;;;;;;;17.03;99.78;100842.66;6188492;23;20075;-64
2023/10/03 01:30:42;;;;;;;32.25;21.15;;;;;;;16.95;99.99;100837.63;6188238;23;20008;-64
2023/10/03 01:33:08;;;;;;;29.92;20.55;;;;;;;16.92;100.00;100833.34;6163442;23;20312;-64
2023/10/03 01:35:35;;;;;;;32.78;21.08;;;;;;;17.10;98.91;100830.91;6188764;23;20445;-64
2023/10/03 01:38:00;;;;;;;29.52;19.95;;;;;;;17.07;99.12;100836.31;6188118;23;20439;-64
2023/10/03 01:40:26;;;;;;;35.72;20.38;;;;;;;17.12;98.79;100823.75;6188383;23;20015;-64
2023/10/03 01:42:52;;;;;;;28.17;19.17;;;;;;;17.16;98.40;100814.75;6163706;23;20008;-64
2023/10/03 01:45:22;;;;;;;32.75;21.08;;;;;;;17.12;98.55;100823.75;6187857;23;20008;-64
2023/10/03 01:47:51;;;;;;;32.15;20.08;;;;;;;17.18;98.08;100820.84;6187578;23;20062;-64
2023/10/03 01:50:18;;;;;;;33.17;20.30;;;;;;;17.20;97.74;100813.72;6187856;23;20136;-64
2023/10/03 01:52:46;;;;;;;31.88;20.35;;;;;;;17.12;98.41;100802.56;6186897;23;20012;-64
2023/10/03 01:55:12;;;;;;;29.33;19.08;;;;;;;17.21;97.70;100796.91;6163796;23;20020;-64
2023/10/03 01:57:42;;;;;;;30.92;20.10;;;;;;;17.25;97.55;100816.19;6187401;23;20023;-64
2023/10/03 02:00:28;;;;;;;31.10;19.43;;;;;;;17.24;97.51;100809.16;6187211;23;20009;-64
2023/10/03 02:03:12;;;;;;;29.92;19.52;;;;;;;17.25;97.33;100805.59;6186792;23;20008;-64
2023/10/03 02:05:38;;;;;;;29.13;19.55;;;;;;;17.26;97.26;100800.22;6187559;23;20036;-64
2023/10/03 02:08:12;;;;;;;31.50;19.75;;;;;;;17.33;96.98;100807.94;6187638;23;20008;-64
2023/10/03 02:10:39;;;;;;;28.65;18.92;;;;;;;17.36;96.94;100802.53;6166588;23;20402;-64
2023/10/03 02:13:14;;;;;;;27.65;18.85;;;;;;;17.37;97.09;100802.44;6187713;23;20012;-64
2023/10/03 02:15:44;;;;;;;29.13;18.50;;;;;;;17.47;96.28;100789.69;6188840;23;20015;-64
2023/10/03 02:18:14;;;;;;;27.35;18.73;;;;;;;17.49;96.22;100795.78;6162580;23;20008;-64
2023/10/03 02:21:16;;;;;;;25.27;17.73;;;;;;;17.46;96.58;100796.75;6188527;23;20104;-64
2023/10/03 02:23:32;;;;;;;32.35;18.45;;;;;;;17.52;96.29;100785.06;6207294;23;20005;-64
2023/10/03 02:26:11;;;;;;;29.83;18.02;;;;;;;17.63;95.42;100777.53;6186998;23;20126;-64
2023/10/03 02:28:38;;;;;;;29.33;17.80;;;;;;;17.63;95.47;100788.13;6162908;23;20281;-64
2023/10/03 02:31:07;;;;;;;25.90;17.45;;;;;;;17.69;95.03;100765.78;6187470;23;20427;-64
2023/10/03 02:33:37;;;;;;;26.77;16.90;;;;;;;17.79;94.14;100759.16;6187744;23;20439;-64
2023/10/03 02:36:05;;;;;;;27.05;15.95;;;;;;;17.89;93.46;100750.84;6163362;23;20079;-64
2023/10/03 02:38:30;;;;;;;27.42;17.20;;;;;;;17.94;93.18;100765.66;6188089;23;20019;-64
2023/10/03 02:41:00;;;;;;;27.55;17.25;;;;;;;18.05;92.42;100774.91;6163269;23;20087;-64
2023/10/03 02:43:34;;;;;;;25.90;17.23;;;;;;;18.14;91.72;100772.69;6188312;23;20013;-64
2023/10/03 02:46:00;;;;;;;29.38;17.23;;;;;;;18.23;91.39;100768.78;6186892;23;20012;-64
2023/10/03 02:48:25;;;;;;;26.52;17.08;;;;;;;18.30;90.51;100778.19;6162362;23;20004;-64
2023/10/03 02:50:51;;;;;;;28.83;18.10;;;;;;;18.16;91.81;100768.19;6163076;23;20008;-64
2023/10/03 02:53:20;;;;;;;25.92;16.40;;;;;;;18.15;91.81;100768.25;6187475;23;20008;-65
2023/10/03 02:55:51;;;;;;;24.80;15.98;;;;;;;18.24;91.10;100783.75;6187160;23;20075;-65
2023/10/03 02:58:17;;;;;;;25.42;15.68;;;;;;;18.34;90.26;100779.75;6212375;23;20031;-64
2023/10/03 03:00:49;;;;;;;26.25;16.83;;;;;;;18.43;89.80;100785.59;6187445;23;20077;-64
2023/10/03 03:03:15;;;;;;;26.55;15.63;;;;;;;18.46;89.73;100783.66;6187149;23;20004;-64
2023/10/03 03:05:42;;;;;;;23.92;15.55;;;;;;;18.47;89.61;100795.97;6187288;23;20399;-64
2023/10/03 03:08:28;;;;;;;23.70;14.27;;;;;;;18.46;90.00;100796.03;6187676;23;20004;-64
2023/10/03 03:10:57;;;;;;;23.05;14.98;;;;;;;18.49;89.62;100798.59;6191797;23;20008;-64
2023/10/03 03:13:24;;;;;;;25.85;15.52;;;;;;;18.56;88.99;100807.09;6162883;23;20008;-64
2023/10/03 03:15:53;;;;;;;23.13;14.60;;;;;;;18.55;88.86;100802.72;6161902;23;20405;-64
2023/10/03 03:18:20;;;;;;;25.50;15.35;;;;;;;18.61;88.63;100795.34;6187460;23;20082;-64
2023/10/03 03:20:50;;;;;;;24.30;15.13;;;;;;;18.52;89.33;100788.69;6187013;23;20075;-64
2023/10/03 03:23:16;;;;;;;23.77;14.60;;;;;;;18.66;88.97;100803.97;6212679;23;20391;-65
2023/10/03 03:25:42;;;;;;;21.77;13.85;;;;;;;18.69;89.54;100797.63;6162222;23;20084;-65
2023/10/03 03:28:15;;;;;;;21.60;14.02;;;;;;;18.69;89.87;100787.03;6162753;23;20445;-65
2023/10/03 03:30:55;;;;;;;19.30;12.43;;;;;;;18.70;90.52;100789.63;6211952;23;20058;-64
2023/10/03 03:33:21;;;;;;;22.58;13.35;;;;;;;18.62;91.90;100783.81;6186972;23;20063;-64
2023/10/03 03:35:47;;;;;;;20.35;13.00;;;;;;;18.66;92.08;100782.75;6162436;23;20087;-64
2023/10/03 03:38:20;;;;;;;17.38;11.82;;;;;;;18.62;92.41;100777.63;6162184;23;20040;-64
2023/10/03 03:40:47;;;;;;;21.92;12.38;;;;;;;18.67;91.79;100784.44;6139562;23;20016;-64
2023/10/03 03:43:16;;;;;;;19.95;12.57;;;;;;;18.55;92.03;100773.53;6187041;23;20049;-64
2023/10/03 03:45:43;;;;;;;20.95;13.43;;;;;;;18.59;91.03;100783.97;6186291;23;20011;-65
2023/10/03 03:48:09;;;;;;;23.58;13.57;;;;;;;18.58;91.02;100782.22;6186229;23;20110;-65
2023/10/03 03:50:35;;;;;;;20.60;13.48;;;;;;;18.51;90.86;100779.00;6162663;23;20032;-65
2023/10/03 03:53:02;;;;;;;20.25;13.00;;;;;;;18.57;90.70;100787.63;6187106;23;20423;-65
2023/10/03 03:55:29;;;;;;;23.17;13.70;;;;;;;18.63;90.27;100785.53;6187272;23;20005;-65
2023/10/03 03:58:18;;;;;;;21.65;13.40;;;;;;;18.54;91.21;100791.25;6186447;23;20013;-64
2023/10/03 04:00:50;;;;;;;20.27;11.68;;;;;;;18.53;91.54;100789.53;6184988;23;20017;-64
2023/10/03 04:03:16;;;;;;;19.77;13.10;;;;;;;18.54;92.06;100783.31;6186677;23;20001;-64
2023/10/03 04:05:42;;;;;;;20.95;12.00;;;;;;;18.50;92.58;100789.66;6137568;23;20009;-64
2023/10/03 04:08:08;;;;;;;17.75;10.98;;;;;;;18.57;92.56;100791.13;6162280;23;20307;-64
2023/10/03 04:10:36;;;;;;;17.23;11.00;;;;;;;18.58;92.83;100798.16;6187431;23;20013;-64
2023/10/03 04:13:07;;;;;;;17.35;11.00;;;;;;;18.65;92.63;100802.25;6187145;23;20012;-64
2023/10/03 04:15:33;;;;;;;17.40;11.40;;;;;;;18.64;92.79;100807.63;6186018;23;20017;-64
2023/10/03 04:17:58;;;;;;;17.88;10.73;;;;;;;18.63;93.15;100806.78;6161413;23;20015;-64
2023/10/03 04:20:35;;;;;;;17.75;10.25;;;;;;;18.62;93.26;100820.97;6186693;23;20043;-64
2023/10/03 04:23:03;;;;;;;17.33;9.63;;;;;;;18.69;92.87;100817.09;6165434;23;20009;-64
2023/10/03 04:25:30;;;;;;;16.85;10.20;;;;;;;18.64;93.43;100813.78;6186270;23;20146;-64
2023/10/03 04:27:56;;;;;;;14.45;10.10;;;;;;;18.59;93.72;100828.19;6186316;23;20066;-64
2023/10/03 04:30:25;;;;;;;15.75;9.27;;;;;;;18.59;93.71;100826.41;6186593;23;20004;-64
2023/10/03 04:32:51;;;;;;;16.23;9.90;;;;;;;18.52;94.39;100831.13;6186302;23;20032;-64
2023/10/03 04:35:20;;;;;;;14.50;10.23;;;;;;;18.50;94.52;100837.44;6186708;23;20016;-65
2023/10/03 04:37:54;;;;;;;15.70;9.30;;;;;;;18.57;93.63;100833.56;6187208;23;20435;-64
2023/10/03 04:40:34;;;;;;;18.02;9.23;;;;;;;18.53;94.07;100829.34;6186505;23;20031;-65
2023/10/03 04:43:05;;;;;;;16.65;9.88;;;;;;;18.49;94.47;100836.59;6164351;23;20043;-65
2023/10/03 04:45:32;;;;;;;16.85;9.82;;;;;;;18.51;94.50;100839.16;6162303;23;20422;-65
2023/10/03 04:47:57;;;;;;;15.18;10.00;;;;;;;18.48;94.76;100847.28;6161456;23;20051;-65
2023/10/03 04:50:25;;;;;;;13.68;9.07;;;;;;;18.51;93.96;100847.13;6211113;23;20008;-64
2023/10/03 04:52:52;;;;;;;17.08;9.13;;;;;;;18.43;94.10;100842.19;6186837;23;20351;-64
2023/10/03 04:55:19;;;;;;;15.15;9.35;;;;;;;18.39;94.05;100848.53;6186525;23;20094;-65
2023/10/03 04:57:46;;;;;;;15.50;8.73;;;;;;;18.39;93.96;100858.28;6161913;23;20067;-64
2023/10/03 05:00:15;;;;;;;12.90;7.90;;;;;;;18.34;93.33;100864.63;6185869;23;20458;-64
2023/10/03 05:02:47;;;;;;;12.35;6.82;;;;;;;18.35;91.74;100874.34;6160098;23;20031;-64
2023/10/03 05:05:16;;;;;;;12.30;6.65;;;;;;;18.29;92.00;100866.66;6162336;23;20013;-65
2023/10/03 05:07:41;;;;;;;13.95;6.85;;;;;;;18.24;92.21;100875.72;6184804;23;20015;-64
2023/10/03 05:10:08;;;;;;;11.43;6.03;;;;;;;18.20;91.38;100861.72;6161481;23;20008;-65
2023/10/03 05:12:33;;;;;;;10.50;6.40;;;;;;;18.16;91.54;100853.06;6161378;23;20009;-64
2023/10/03 05:14:59;;;;;;;10.95;6.32;;;;;;;18.17;90.97;100873.34;6185931;23;20031;-64
2023/10/03 05:17:26;;;;;;;13.55;6.40;;;;;;;18.14;90.92;100896.47;6184503;23;20419;-64
2023/10/03 05:19:53;;;;;;;9.43;6.30;;;;;;;18.12;91.10;100908.94;6160898;23;20013;-65
2023/10/03 05:22:20;;;;;;;10.43;6.53;;;;;;;18.11;90.91;100915.19;6159501;23;20386;-64
2023/10/03 05:24:49;;;;;;;10.38;6.40;;;;;;;18.08;91.23;100916.16;6184062;23;20009;-64
2023/10/03 05:27:16;;;;;;;13.93;6.70;;;;;;;18.04;91.56;100919.00;6137550;23;20013;-64
2023/10/03 05:29:43;;;;;;;11.00;6.13;;;;;;;18.00;91.42;100921.78;6161257;23;20009;-64
2023/10/03 05:32:08;;;;;;;14.90;6.78;;;;;;;18.03;91.12;100917.28;6161927;23;20082;-65
2023/10/03 05:34:34;;;;;;;11.07;6.32;;;;;;;17.96;91.47;100887.53;6159868;23;20381;-64
2023/10/03 05:37:00;;;;;;;14.98;6.03;;;;;;;17.90;91.74;100880.69;6163174;23;20013;-64
2023/10/03 05:39:26;;;;;;;10.52;6.07;;;;;;;17.93;90.60;100885.88;6163225;23;20004;-64
2023/10/03 05:41:56;;;;;;;13.15;6.10;;;;;;;17.87;91.26;100885.22;6164113;23;20032;-64
2023/10/03 05:44:22;;;;;;;13.50;6.50;;;;;;;17.86;91.21;100883.47;6186896;23;20138;-64
2023/10/03 05:46:55;;;;;;;11.07;6.28;;;;;;;17.86;91.78;100894.06;6188460;23;20427;-64
2023/10/03 05:49:24;;;;;;;9.10;6.53;;;;;;;17.83;92.03;100900.41;6187245;23;20004;-64
2023/10/03 05:51:55;;;;;;;13.25;6.53;;;;;;;17.75;92.63;100906.00;6139504;23;20331;-64
2023/10/03 05:54:23;;;;;;;13.30;6.35;;;;;;;17.76;92.61;100898.91;6164776;23;20004;-64
2023/10/03 05:56:49;;;;;;;9.48;5.80;;;;;;;17.72;93.43;100900.81;6212956;23;20269;-65
2023/10/03 05:59:15;;;;;;;12.88;6.40;;;;;;;17.75;93.00;100903.34;6187313;23;20400;-64
2023/10/03 06:01:42;;;;;;;11.63;6.10;;;;;;;17.79;92.81;100904.09;6185019;23;20008;-64
2023/10/03 06:04:08;;;;;;;11.30;7.13;;;;;;;17.82;92.36;100894.22;6186075;23;20043;-64
2023/10/03 06:06:33;;;;;;;12.05;6.40;;;;;;;17.76;93.48;100909.53;6163466;23;20012;-64
2023/10/03 06:08:59;;;;;;;14.07;6.47;;;;;;;17.74;93.49;100906.94;6161508;23;20015;-64
2023/10/03 06:11:24;;;;;;;11.48;6.18;;;;;;;17.74;93.48;100912.25;6161660;23;20035;-64
2023/10/03 06:13:49;;;;;;;11.30;6.13;;;;;;;17.73;93.50;100920.22;6163322;23;20008;-65
2023/10/03 06:16:15;;;;;;;14.18;6.20;;;;;;;17.75;93.24;100913.09;6186460;23;20009;-64
2023/10/03 06:18:41;;;;;;;11.95;6.85;;;;;;;17.71;93.79;100912.34;6136702;23;20103;-64
2023/10/03 06:21:10;;;;;;;10.18;6.10;;;;;;;17.69;93.97;100913.34;6187915;23;20048;-64
2023/10/03 06:23:37;;;;;;;10.05;5.72;;;;;;;17.66;94.09;100920.47;6188367;23;20008;-64
2023/10/03 06:26:03;;;;;;;12.98;6.15;;;;;;;17.68;94.01;100923.06;6164601;23;20020;-64
2023/10/03 06:28:28;;;;;;;9.55;6.10;;;;;;;17.65;94.35;100939.94;6213011;23;20004;-64
2023/10/03 06:30:54;;;;;;;13.40;6.30;;;;;;;17.61;94.96;100942.78;6188294;23;20351;-64
2023/10/03 06:33:20;;;;;;;12.77;6.47;;;;;;;17.64;94.38;100940.00;6162943;23;20083;-65
2023/10/03 06:35:48;;;;;;;9.82;5.88;;;;;;;17.61;94.88;100948.97;6188053;23;20005;-64
2023/10/03 06:38:15;;;;;;;10.75;6.30;;;;;;;17.61;95.07;100956.03;6163428;23;20099;-64
2023/10/03 06:40:41;;;;;;;13.75;6.95;;;;;;;17.61;95.47;100950.72;6162957;23;20032;-64
2023/10/03 06:43:06;;;;;;;10.55;6.57;;;;;;;17.55;96.50;100962.44;6188353;23;20458;-65
2023/10/03 06:45:32;;;;;;;10.65;7.20;;;;;;;17.51;97.30;100959.97;6211827;23;20024;-65
2023/10/03 06:48:03;;;;;;;12.32;6.93;;;;;;;17.42;98.98;100962.03;6185329;23;20032;-65
2023/10/03 06:50:32;;;;;;;14.43;8.13;;;;;;;17.29;100.00;100961.66;6163984;23;20020;-65
2023/10/03 06:52:58;;;;;;;16.25;8.43;;;;;;;17.21;100.00;100978.75;6187366;23;20443;-64
2023/10/03 06:55:23;;;;;;;14.20;8.43;;;;;;;17.10;100.00;100979.16;6163044;23;20438;-64
2023/10/03 06:57:50;;;;;;;12.65;8.10;;;;;;;17.02;100.00;100982.06;6188408;23;20004;-64
2023/10/03 07:00:17;;;;;;;13.45;8.48;;;;;;;17.00;100.00;100988.38;6214417;23;20011;-64
2023/10/03 07:06:04;;;;;;;15.18;9.40;;;;;;;16.96;100.00;100995.53;6215065;23;20047;-64
2023/10/03 07:08:29;;;;;;;12.60;8.38;;;;;;;16.94;100.00;101000.03;6163252;23;20004;-64
2023/10/03 07:10:57;;;;;;;14.45;9.07;;;;;;;16.91;100.00;101001.00;6188527;23;20009;-64
2023/10/03 07:13:24;;;;;;;15.50;9.18;;;;;;;16.96;100.00;101004.34;6164721;23;20008;-64
2023/10/03 07:15:49;;;;;;;14.05;9.27;;;;;;;16.91;100.00;101003.66;6164243;23;20005;-64
2023/10/03 07:18:17;;;;;;;14.13;9.48;;;;;;;16.89;100.00;101018.69;6188481;23;20012;-64
2023/10/03 07:20:43;;;;;;;15.60;9.57;;;;;;;16.90;100.00;101016.94;6163039;23;20047;-64
2023/10/03 07:23:08;;;;;;;14.88;10.07;;;;;;;16.86;100.00;101007.34;6188816;23;20017;-64
2023/10/03 07:25:33;;;;;;;16.52;11.00;;;;;;;16.86;100.00;101007.34;6188578;23;20013;-64
2023/10/03 07:28:00;;;;;;;16.40;10.13;;;;;;;16.84;100.00;100994.16;6163666;23;20014;-64
2023/10/03 07:30:26;;;;;;;13.90;10.13;;;;;;;16.85;100.00;100990.63;6139823;23;20028;-65
2023/10/03 07:32:51;;;;;;;12.30;9.73;;;;;;;16.86;100.00;100997.63;6163944;23;20012;-64
2023/10/03 07:35:19;;;;;;;14.52;9.20;;;;;;;16.90;100.00;100995.78;6188207;23;20031;-64
2023/10/03 07:37:45;;;;;;;13.48;9.38;;;;;;;16.91;100.00;100995.72;6187101;23;20054;-64
2023/10/03 07:40:11;;;;;;;15.23;9.40;;;;;;;16.94;100.00;101002.69;6187796;23;20012;-64
2023/10/03 07:42:39;;;;;;;15.88;10.23;;;;;;;17.03;100.00;101006.78;6163310;23;20012;-64
2023/10/03 07:45:09;;;;;;;13.40;9.07;;;;;;;17.07;100.00;101016.34;6163030;23;20008;-64
2023/10/03 07:47:37;;;;;;;14.35;9.45;;;;;;;17.15;100.00;101011.63;6188045;23;20011;-64
2023/10/03 07:50:03;;;;;;;14.80;9.68;;;;;;;17.20;100.00;101016.75;6188179;23;20338;-64
2023/10/03 07:52:29;;;;;;;14.70;10.50;;;;;;;17.25;100.00;101026.25;6187884;23;20009;-65
2023/10/03 07:54:56;;;;;;;14.52;9.65;;;;;;;17.29;100.00;101038.44;6162573;23;20040;-65
2023/10/03 07:57:25;;;;;;;11.63;9.35;;;;;;;17.29;100.00;101049.03;6212240;23;20430;-65
2023/10/03 07:59:54;;;;;;;13.82;9.27;;;;;;;17.31;100.00;101060.47;6187415;23;20059;-65
2023/10/03 08:02:26;;;;;;;12.05;8.68;;;;;;;17.25;100.00;101058.03;6186978;23;20308;-64
2023/10/03 08:04:52;;;;;;;14.90;9.07;;;;;;;17.21;100.00;101055.53;6188888;23;20004;-64
2023/10/03 08:07:23;;;;;;;12.82;8.25;;;;;;;17.23;100.00;101043.13;6187433;23;20296;-64
2023/10/03 08:09:49;;;;;;;14.82;8.27;;;;;;;17.20;100.00;101057.34;6212877;23;20003;-64
2023/10/03 08:12:22;;;;;;;12.38;8.02;;;;;;;17.20;100.00;101062.63;6187121;23;20099;-64
2023/10/03 08:14:51;;;;;;;15.18;8.50;;;;;;;17.21;100.00;101067.03;6185883;23;20051;-65
2023/10/03 08:17:18;;;;;;;12.30;9.05;;;;;;;17.19;100.00;101090.03;6187324;23;20008;-65
2023/10/03 08:20:21;;;;;;;12.68;8.68;;;;;;;17.17;100.00;101091.88;6188093;23;20438;-64
2023/10/03 08:22:53;;;;;;;14.02;8.70;;;;;;;17.11;100.00;101081.47;6211833;23;20020;-65
2023/10/03 08:25:20;;;;;;;13.27;8.50;;;;;;;17.03;100.00;101094.16;6188225;23;20350;-65
2023/10/03 08:27:46;;;;;;;12.63;8.48;;;;;;;17.02;100.00;101105.66;6187746;23;20005;-65
2023/10/03 08:30:28;;;;;;;10.90;7.35;;;;;;;17.01;100.00;101120.69;6187591;23;20016;-65
2023/10/03 08:33:00;;;;;;;11.73;8.20;;;;;;;17.09;100.00;101118.59;6188002;23;20023;-65
2023/10/03 08:35:37;;;;;;;9.45;6.53;;;;;;;17.09;100.00;101115.97;6187887;23;20004;-64
2023/10/03 08:38:07;;;;;;;9.82;5.65;;;;;;;17.13;100.00;101122.03;6212701;23;20020;-60
2023/10/03 08:40:38;;;;;;;;;;;;;;;17.27;100.00;101130.34;6163753;23;20012;-60
2023/10/03 08:43:08;;;;;;;9.50;5.20;;;;;;;17.25;100.00;101124.22;6212857;23;19908;-60
2023/10/03 08:45:41;;;;;;;9.98;4.43;;;;;;;17.40;100.00;101135.22;6187548;23;20008;-60
2023/10/03 08:48:07;;;;;;;8.18;4.70;;;;;;;17.59;100.00;101138.06;6187941;23;20076;-60
2023/10/03 08:50:38;;;;;;;9.13;4.60;;;;;;;17.70;99.85;101148.25;6186935;23;20008;-60
2023/10/03 08:53:13;;;;;;;7.20;3.72;;;;;;;17.78;96.58;101160.31;6212968;23;20028;-61
2023/10/03 08:55:43;;;;;;;6.65;3.40;;;;;;;17.85;96.51;101155.66;6188005;23;20091;-60
2023/10/03 08:58:13;;;;;;;6.65;3.80;;;;;;;17.91;96.44;101160.75;6187685;23;20063;-60
2023/10/03 09:00:41;;;;;;;6.28;3.33;;;;;;;17.90;96.69;101166.09;6188070;23;20011;-61
2023/10/03 09:03:12;;;;;;;7.10;2.72;;;;;;;17.83;94.73;101161.03;6162570;23;20522;-65
2023/10/03 09:05:40;;;;;;;5.13;2.25;;;;;;;17.75;93.29;101176.34;6211728;23;20102;-64
2023/10/03 09:08:10;;;;;;;4.63;1.63;;;;;;;17.51;94.61;101188.66;6187719;23;20454;-65
2023/10/03 09:10:50;;;;;;;1.38;0.60;;;;;;;17.24;95.88;101199.31;6216049;23;20007;-64
2023/10/03 09:13:23;;;;;;;2.30;0.70;;;;;;;16.76;97.67;101192.91;6189038;23;20079;-65
2023/10/03 09:15:59;;;;;;;4.38;1.08;;;;;;;16.60;98.25;101211.03;6189360;23;20004;-64
2023/10/03 09:18:31;;;;;;;2.17;0.65;;;;;;;16.39;99.30;101215.22;6165433;23;20066;-64
2023/10/03 09:20:59;;;;;;;7.30;1.48;;;;;;;16.36;100.00;101214.44;6189627;23;20024;-64
2023/10/03 09:23:38;;;;;;;3.55;1.13;;;;;;;16.40;100.00;101222.22;6215516;23;20001;-64
2023/10/03 09:26:06;;;;;;;2.45;0.90;;;;;;;16.61;100.00;101231.28;6187705;23;20066;-64
2023/10/03 09:28:40;;;;;;;3.78;1.10;;;;;;;16.67;98.35;101247.91;6189029;23;20051;-64
2023/10/03 09:31:09;;;;;;;3.83;1.10;;;;;;;16.82;99.76;101249.22;6189891;23;20009;-64
2023/10/03 09:33:38;;;;;;;2.50;0.88;;;;;;;16.88;97.92;101264.91;6188141;23;20013;-64
2023/10/03 09:36:06;;;;;;;7.00;1.42;;;;;;;16.89;98.10;101270.16;6188293;23;20004;-64
2023/10/03 09:38:45;;;;;;;4.75;1.48;;;;;;;16.91;99.14;101276.28;6188212;23;20096;-64
2023/10/03 09:41:21;;;;;;;3.40;1.02;;;;;;;16.83;98.26;101277.41;6189116;23;20443;-64
2023/10/03 09:43:49;;;;;;;3.72;1.35;;;;;;;16.79;98.87;101276.63;6190873;23;20009;-60
2023/10/03 09:46:23;;;;;;;2.50;1.20;;;;;;;16.76;98.04;101276.72;6187840;23;20000;-60
2023/10/03 09:48:53;;;;;;;4.05;1.05;;;;;;;16.74;99.25;101273.28;6189597;23;20015;-60
2023/10/03 09:54:24;;;;;;;3.13;1.08;;;;;;;16.79;97.97;101271.34;6166093;23;20049;-60
2023/10/03 09:56:51;;;;;;;3.70;1.20;;;;;;;16.78;98.41;101274.91;6164704;23;20016;-60
2023/10/03 09:59:23;;;;;;;3.25;1.55;;;;;;;16.77;98.44;101281.97;6187662;23;20012;-60
2023/10/03 10:01:49;;;;;;;3.55;1.70;;;;;;;16.72;98.56;101285.66;6163684;23;20009;-60
2023/10/03 10:04:19;;;;;;;2.92;1.13;;;;;;;16.67;98.96;101291.09;6187907;23;20067;-59
2023/10/03 10:07:16;;;;;;;4.75;1.50;;;;;;;16.64;98.85;101293.84;6213478;23;20016;-60
2023/10/03 10:09:54;;;;;;;5.30;1.83;;;;;;;16.64;98.57;101288.56;6188494;23;20007;-62
2023/10/03 10:12:20;;;;;;;4.10;1.52;;;;;;;16.59;97.70;101301.94;6188451;23;20035;-62
2023/10/03 10:17:49;;;;;;;3.50;1.10;;;;;;;16.47;96.52;101307.56;6197487;23;20024;-63
2023/10/03 10:20:37;;;;;;;4.78;1.38;;;;;;;16.45;96.52;101317.34;6212960;23;20012;-63
2023/10/03 10:23:12;;;;;;;4.50;0.88;;;;;;;16.47;95.13;101339.31;6209184;23;20017;-63
2023/10/03 10:25:43;;;;;;;3.17;0.80;;;;;;;16.52;93.36;101355.94;6187597;23;20036;-62
2023/10/03 10:28:08;;;;;;;;;;;;;;;16.82;93.05;101361.22;6213987;23;20032;-63
2023/10/03 10:30:44;;;;;;;2.58;0.77;;;;;;;16.53;92.03;101367.38;6212586;23;20294;-63
2023/10/03 10:33:16;;;;;;;3.80;0.80;;;;;;;16.48;94.11;101364.84;6187224;23;20012;-63
2023/10/03 10:35:55;;;;;;;2.05;1.10;;;;;;;16.48;94.25;101370.16;6212524;23;20107;-63
2023/10/03 10:38:32;;;;;;;2.15;0.85;;;;;;;16.51;93.17;101366.56;6163919;23;20423;-62
2023/10/03 10:41:26;;;;;;;2.63;0.70;;;;;;;16.58;93.49;101379.56;6188398;23;20013;-64
2023/10/03 10:44:14;;;;;;;2.88;0.80;;;;;;;16.66;94.40;101379.31;6187989;23;20044;-63
2023/10/03 10:46:45;;;;;;;2.67;1.13;;;;;;;16.66;94.33;101381.13;6164438;23;20461;-62
2023/10/03 10:49:30;;;;;;;;;;;;;;;16.85;93.40;101387.63;6212603;23;20004;-62
2023/10/03 10:51:57;;;;;;;3.25;1.02;;;;;;;16.52;92.67;101394.72;6211930;23;19904;-63
2023/10/03 10:54:26;;;;;;;3.92;1.08;;;;;;;16.40;92.98;101395.94;6187775;23;20008;-63
2023/10/03 10:57:05;;;;;;;2.00;0.77;;;;;;;16.33;95.43;101399.66;6186870;23;20005;-63
2023/10/03 10:59:35;;;;;;;2.97;1.10;;;;;;;16.18;96.36;101401.81;6187362;23;20040;-62
2023/10/03 11:02:01;;;;;;;1.63;0.60;;;;;;;16.20;96.78;101407.03;6187899;23;20434;-62
2023/10/03 11:04:29;;;;;;;3.22;0.70;;;;;;;15.94;98.21;101404.16;6186803;23;20019;-62
2023/10/03 11:06:54;;;;;;;1.40;0.43;;;;;;;15.75;97.69;101401.06;6163602;23;20008;-62
2023/10/03 11:09:21;;;;;;;1.70;0.60;;;;;;;15.65;99.77;101418.06;6213032;23;20005;-63
2023/10/03 11:11:47;;;;;;;2.60;0.70;;;;;;;15.61;100.00;101416.38;6188302;23;20303;-63
2023/10/03 11:14:31;;;;;;;2.28;0.60;;;;;;;15.87;100.00;101414.94;6187071;23;20076;-62
2023/10/03 11:16:58;;;;;;;3.28;0.73;;;;;;;15.94;100.00;101424.44;6186517;23;20031;-62
2023/10/03 11:19:24;;;;;;;2.45;0.75;;;;;;;15.97;100.00;101434.06;6186702;23;20013;-62
2023/10/03 11:21:51;;;;;;;3.05;0.88;;;;;;;15.86;100.00;101443.13;6186221;23;20020;-63
2023/10/03 11:24:19;;;;;;;1.67;0.80;;;;;;;15.80;100.00;101439.78;6188027;23;20004;-63
2023/10/03 11:26:57;;;;;;;1.92;0.80;;;;;;;15.81;100.00;101442.38;6188034;23;20011;-62
2023/10/03 11:29:46;;;;;;;2.35;0.60;;;;;;;15.88;100.00;101433.38;6187895;23;20009;-62
2023/10/03 11:32:25;;;;;;;2.30;0.83;;;;;;;15.87;100.00;101431.63;6188373;23;20032;-62
2023/10/03 11:34:52;;;;;;;2.30;0.68;;;;;;;15.86;100.00;101422.00;6212846;23;20282;-62
2023/10/03 11:37:51;;;;;;;3.40;0.85;;;;;;;16.09;100.00;101441.69;6212711;23;20016;-62